createdAt,value
2022-08-17T00:00:49.630Z,54.82
2022-08-17T00:01:56.742Z,54.72
2022-08-17T00:03:03.727Z,54.56
2022-08-17T00:04:17.853Z,54.21
2022-08-17T00:05:22.935Z,54.51
2022-08-17T00:06:27.314Z,54.58
2022-08-17T00:07:31.805Z,54.55
2022-08-17T00:08:36.165Z,54.84
2022-08-17T00:09:40.519Z,53.94
2022-08-17T00:10:44.873Z,53.98
2022-08-17T00:12:45.893Z,54.16
2022-08-17T00:13:50.485Z,54.15
2022-08-17T00:15:00.333Z,54.52
2022-08-17T00:16:04.695Z,54.15
2022-08-17T00:17:09.089Z,54.18
2022-08-17T00:19:09.953Z,54.01
2022-08-17T00:20:15.954Z,54.26
2022-08-17T00:22:35.379Z,54.72
2022-08-17T00:23:51.008Z,54.75
2022-08-17T00:24:55.374Z,54.78
2022-08-17T00:25:59.743Z,54.67
2022-08-17T00:27:04.112Z,54.74
2022-08-17T00:28:08.483Z,54.51
2022-08-17T00:29:21.460Z,54.62
2022-08-17T00:30:25.907Z,54.51
2022-08-17T00:31:30.238Z,54.27
2022-08-17T00:33:18.114Z,54.29
2022-08-17T00:34:22.504Z,54.56
2022-08-17T00:35:26.841Z,54.26
2022-08-17T00:36:31.195Z,54.46
2022-08-17T00:37:35.543Z,55.05
2022-08-17T00:38:39.898Z,54.05
2022-08-17T00:39:44.515Z,54.34
2022-08-17T00:40:50.071Z,54.36
2022-08-17T00:41:58.501Z,53.91
2022-08-17T00:43:03.421Z,54.09
2022-08-17T00:44:07.783Z,53.9
2022-08-17T00:45:12.175Z,54.28
2022-08-17T00:46:16.518Z,53.64
2022-08-17T00:47:20.901Z,53.9
2022-08-17T00:48:32.185Z,53.61
2022-08-17T00:49:36.562Z,53.78
2022-08-17T00:50:41.025Z,54.15
2022-08-17T00:51:45.401Z,54.07
2022-08-17T00:52:50.194Z,53.79
2022-08-17T00:53:54.680Z,54.28
2022-08-17T00:54:59.055Z,53.56
2022-08-17T00:56:03.421Z,53.46
2022-08-17T00:57:09.012Z,53.58
2022-08-17T00:58:13.371Z,53.51
2022-08-17T00:59:17.733Z,53.87
2022-08-17T01:00:22.093Z,53.56
2022-08-17T01:01:26.705Z,53.6
2022-08-17T01:02:43.909Z,53.54
2022-08-17T01:03:48.420Z,53.72
2022-08-17T01:04:52.795Z,53.69
2022-08-17T01:05:57.716Z,54.14
2022-08-17T01:07:02.149Z,53.86
2022-08-17T01:08:06.502Z,53.68
2022-08-17T01:09:10.855Z,54.44
2022-08-17T01:11:03.479Z,53.74
2022-08-17T01:12:11.482Z,53.43
2022-08-17T01:13:15.874Z,53.75
2022-08-17T01:14:20.239Z,53.63
2022-08-17T01:15:24.595Z,53.94
2022-08-17T01:16:28.977Z,54.08
2022-08-17T01:17:33.336Z,53.59
2022-08-17T01:18:37.659Z,53.37
2022-08-17T01:19:42.030Z,53.62
2022-08-17T01:20:50.738Z,53.56
2022-08-17T01:21:55.093Z,53.62
2022-08-17T01:22:59.446Z,53.67
2022-08-17T01:24:03.815Z,54.23
2022-08-17T01:25:08.182Z,54.24
2022-08-17T01:26:12.551Z,54.41
2022-08-17T01:27:21.707Z,55.24
2022-08-17T01:28:56.964Z,54.51
2022-08-17T01:30:01.344Z,53.72
2022-08-17T01:31:05.792Z,54.58
2022-08-17T01:32:10.405Z,53.67
2022-08-17T01:33:15.108Z,53.81
2022-08-17T01:34:19.458Z,53.96
2022-08-17T01:35:24.755Z,53.82
2022-08-17T01:36:29.170Z,53.97
2022-08-17T01:37:33.673Z,53.72
2022-08-17T01:38:38.038Z,53.85
2022-08-17T01:39:42.791Z,53.71
2022-08-17T01:40:47.275Z,53.84
2022-08-17T01:42:01.986Z,53.72
2022-08-17T01:43:06.361Z,54.23
2022-08-17T01:44:10.700Z,53.43
2022-08-17T01:45:15.059Z,53.74
2022-08-17T01:46:19.385Z,54.05
2022-08-17T01:47:25.994Z,54.11
2022-08-17T01:48:30.333Z,54.16
2022-08-17T01:49:34.733Z,53.53
2022-08-17T01:50:39.085Z,53.76
2022-08-17T01:51:43.421Z,53.37
2022-08-17T01:52:47.880Z,53.39
2022-08-17T01:53:52.277Z,53.25
2022-08-17T01:54:56.618Z,53.15
2022-08-17T01:56:00.971Z,53.08
2022-08-17T01:57:05.327Z,53.23
2022-08-17T01:58:09.674Z,53.93
2022-08-17T01:59:16.288Z,53.1
2022-08-17T02:00:20.703Z,53.15
2022-08-17T02:01:25.246Z,52.88
2022-08-17T02:02:33.496Z,52.97
2022-08-17T02:03:37.848Z,53.28
2022-08-17T02:04:42.198Z,52.83
2022-08-17T02:05:46.555Z,53.05
2022-08-17T02:06:56.536Z,53.32
2022-08-17T02:08:03.308Z,53.51
2022-08-17T02:09:18.620Z,53.99
2022-08-17T02:10:36.053Z,53.61
2022-08-17T02:11:52.307Z,54.12
2022-08-17T02:12:58.474Z,53.28
2022-08-17T02:14:05.845Z,53.07
2022-08-17T02:15:10.295Z,52.99
2022-08-17T02:16:14.640Z,53.42
2022-08-17T02:17:18.949Z,52.93
2022-08-17T02:18:23.309Z,53.63
2022-08-17T02:19:27.678Z,53.39
2022-08-17T02:20:44.032Z,53.42
2022-08-17T02:21:48.410Z,53.53
2022-08-17T02:22:53.367Z,52.96
2022-08-17T02:23:57.776Z,53.27
2022-08-17T02:25:04.569Z,53.37
2022-08-17T02:26:08.929Z,52.83
2022-08-17T02:27:28.559Z,52.92
2022-08-17T02:28:32.934Z,52.8
2022-08-17T02:29:37.330Z,52.87
2022-08-17T02:31:04.345Z,52.63
2022-08-17T02:32:08.697Z,52.73
2022-08-17T02:33:13.076Z,53.59
2022-08-17T02:34:17.754Z,53.37
2022-08-17T02:35:24.263Z,52.84
2022-08-17T02:36:29.592Z,52.86
2022-08-17T02:37:33.969Z,53.15
2022-08-17T02:38:38.393Z,53.16
2022-08-17T02:39:42.898Z,53.13
2022-08-17T02:40:47.396Z,52.76
2022-08-17T02:41:51.758Z,53.15
2022-08-17T02:42:56.105Z,52.53
2022-08-17T02:44:00.502Z,52.77
2022-08-17T02:45:04.870Z,53.36
2022-08-17T02:46:09.218Z,53.08
2022-08-17T02:47:13.571Z,52.87
2022-08-17T02:48:33.301Z,52.77
2022-08-17T02:49:37.702Z,52.52
2022-08-17T02:50:42.048Z,52.98
2022-08-17T02:51:46.399Z,53.18
2022-08-17T02:53:05.944Z,52.85
2022-08-17T02:54:43.580Z,52.95
2022-08-17T02:55:47.931Z,53.04
2022-08-17T02:56:52.327Z,53.74
2022-08-17T02:57:56.668Z,53.26
2022-08-17T02:59:01.152Z,52.85
2022-08-17T03:00:05.499Z,52.88
2022-08-17T03:01:09.982Z,52.85
2022-08-17T03:02:14.496Z,52.63
2022-08-17T03:03:18.850Z,52.52
2022-08-17T03:04:23.224Z,52.57
2022-08-17T03:05:27.623Z,52.54
2022-08-17T03:06:31.954Z,52.43
2022-08-17T03:07:36.303Z,52.51
2022-08-17T03:08:40.670Z,52.56
2022-08-17T03:09:45.035Z,52.84
2022-08-17T03:10:49.387Z,52.68
2022-08-17T03:11:57.842Z,52.65
2022-08-17T03:13:02.167Z,53.17
2022-08-17T03:14:06.507Z,53.07
2022-08-17T03:15:10.835Z,52.97
2022-08-17T03:16:15.195Z,52.61
2022-08-17T03:17:19.613Z,52.62
2022-08-17T03:18:27.605Z,52.59
2022-08-17T03:19:31.975Z,52.83
2022-08-17T03:20:36.352Z,52.63
2022-08-17T03:21:40.714Z,52.92
2022-08-17T03:22:55.176Z,52.11
2022-08-17T03:24:11.424Z,52.13
2022-08-17T03:25:23.662Z,52.11
2022-08-17T03:26:31.866Z,52.32
2022-08-17T03:27:36.215Z,52.41
2022-08-17T03:28:43.868Z,52.52
2022-08-17T03:29:48.207Z,52.39
2022-08-17T03:30:52.681Z,52.7
2022-08-17T03:31:57.092Z,53.28
2022-08-17T03:33:01.449Z,53.16
2022-08-17T03:34:05.772Z,53.17
2022-08-17T03:35:10.254Z,52.8
2022-08-17T03:36:17.219Z,53.37
2022-08-17T03:37:21.575Z,52.82
2022-08-17T03:38:26.605Z,53.46
2022-08-17T03:39:31.131Z,53.74
2022-08-17T03:41:00.939Z,53.68
2022-08-17T03:42:05.279Z,53.39
2022-08-17T03:43:09.634Z,52.99
2022-08-17T03:44:14.008Z,53.43
2022-08-17T03:45:18.355Z,53.29
2022-08-17T03:46:37.247Z,53.42
2022-08-17T03:47:44.492Z,53.3
2022-08-17T03:48:48.847Z,52.85
2022-08-17T03:49:53.175Z,52.62
2022-08-17T03:50:57.540Z,53.05
2022-08-17T03:52:01.926Z,53.18
2022-08-17T03:53:06.285Z,53.23
2022-08-17T03:54:10.786Z,53.11
2022-08-17T03:55:15.131Z,52.82
2022-08-17T03:56:19.459Z,53.03
2022-08-17T03:57:23.811Z,53.28
2022-08-17T03:58:28.165Z,53.28
2022-08-17T03:59:32.685Z,53.15
2022-08-17T04:00:41.689Z,53.26
2022-08-17T04:01:46.274Z,53.05
2022-08-17T04:02:51.205Z,53.2
2022-08-17T04:03:55.654Z,53.28
2022-08-17T04:05:00.067Z,53.17
2022-08-17T04:06:04.467Z,53.35
2022-08-17T04:07:08.815Z,53.17
2022-08-17T04:08:13.197Z,52.95
2022-08-17T04:09:18.005Z,52.93
2022-08-17T04:10:34.002Z,53.14
2022-08-17T04:11:45.700Z,52.83
2022-08-17T04:12:50.641Z,52.49
2022-08-17T04:13:55.078Z,52.69
2022-08-17T04:14:59.456Z,52.86
2022-08-17T04:16:05.409Z,52.67
2022-08-17T04:17:09.784Z,52.72
2022-08-17T04:18:14.161Z,52.41
2022-08-17T04:19:18.556Z,52.73
2022-08-17T04:20:22.934Z,52.94
2022-08-17T04:21:27.299Z,53.12
2022-08-17T04:22:35.840Z,52.78
2022-08-17T04:23:40.173Z,51.67
2022-08-17T04:24:45.770Z,51.65
2022-08-17T04:25:50.132Z,51.58
2022-08-17T04:26:56.752Z,51.73
2022-08-17T04:28:01.115Z,51.71
2022-08-17T04:29:05.507Z,51.74
2022-08-17T04:30:09.878Z,51.88
2022-08-17T04:31:14.241Z,52.03
2022-08-17T04:33:07.747Z,52.19
2022-08-17T04:34:12.106Z,52.32
2022-08-17T04:35:16.458Z,52.32
2022-08-17T04:36:20.819Z,52.33
2022-08-17T04:37:25.160Z,52.53
2022-08-17T04:38:29.560Z,52.47
2022-08-17T04:39:36.108Z,52.36
2022-08-17T04:40:40.509Z,52.47
2022-08-17T04:41:45.433Z,52.41
2022-08-17T04:43:02.883Z,52.55
2022-08-17T04:44:07.262Z,52.71
2022-08-17T04:45:11.695Z,52.44
2022-08-17T04:46:16.097Z,52.44
2022-08-17T04:47:20.445Z,52.4
2022-08-17T04:48:37.791Z,52.62
2022-08-17T04:49:42.239Z,52.56
2022-08-17T04:50:46.579Z,52.63
2022-08-17T04:52:05.117Z,52.78
2022-08-17T04:53:09.474Z,52.63
2022-08-17T04:54:13.840Z,52.78
2022-08-17T04:55:18.198Z,52.72
2022-08-17T04:56:22.561Z,52.81
2022-08-17T04:57:26.920Z,52.95
2022-08-17T04:58:31.287Z,53.02
2022-08-17T04:59:35.689Z,52.9
2022-08-17T05:00:40.025Z,52.91
2022-08-17T05:01:44.523Z,52.93
2022-08-17T05:02:52.875Z,53.08
2022-08-17T05:03:57.527Z,53.1
2022-08-17T05:05:02.074Z,52.95
2022-08-17T05:06:06.509Z,53.04
2022-08-17T05:07:10.912Z,53.01
2022-08-17T05:08:15.256Z,53.06
2022-08-17T05:09:19.588Z,53.13
2022-08-17T05:10:23.943Z,53.05
2022-08-17T05:11:28.339Z,53.23
2022-08-17T05:12:32.693Z,53.34
2022-08-17T05:13:37.075Z,53.4
2022-08-17T05:14:41.423Z,53.34
2022-08-17T05:15:49.029Z,53.43
2022-08-17T05:16:53.449Z,53.49
2022-08-17T05:17:57.879Z,53.45
2022-08-17T05:19:02.239Z,53.44
2022-08-17T05:20:06.596Z,53.59
2022-08-17T05:21:10.941Z,53.56
2022-08-17T05:22:15.349Z,53.5
2022-08-17T05:23:19.702Z,53.62
2022-08-17T05:24:55.427Z,53.72
2022-08-17T05:26:00.709Z,53.62
2022-08-17T05:27:08.667Z,53.59
2022-08-17T05:28:13.122Z,53.63
2022-08-17T05:29:17.512Z,53.85
2022-08-17T05:30:21.879Z,53.79
2022-08-17T05:31:26.209Z,53.83
2022-08-17T05:32:41.833Z,53.7
2022-08-17T05:33:48.433Z,53.91
2022-08-17T05:34:52.785Z,53.73
2022-08-17T05:35:57.946Z,53.91
2022-08-17T05:37:02.344Z,53.88
2022-08-17T05:38:06.710Z,53.89
2022-08-17T05:39:18.498Z,54.01
2022-08-17T05:40:22.876Z,54
2022-08-17T05:41:27.269Z,53.86
2022-08-17T05:42:31.720Z,53.79
2022-08-17T05:43:36.087Z,53.84
2022-08-17T05:44:40.458Z,53.77
2022-08-17T05:45:57.720Z,53.63
2022-08-17T05:47:02.074Z,53.67
2022-08-17T05:48:06.420Z,53.61
2022-08-17T05:49:10.803Z,53.57
2022-08-17T05:50:25.731Z,53.55
2022-08-17T05:51:31.351Z,53.55
2022-08-17T05:52:35.883Z,53.5
2022-08-17T05:53:43.943Z,53.56
2022-08-17T05:54:48.370Z,53.5
2022-08-17T05:55:52.784Z,53.46
2022-08-17T05:56:57.167Z,53.4
2022-08-17T05:58:02.191Z,53.51
2022-08-17T05:59:06.813Z,53.49
2022-08-17T06:00:12.090Z,53.48
2022-08-17T06:01:18.404Z,53.39
2022-08-17T06:02:22.865Z,53.41
2022-08-17T06:03:27.257Z,53.46
2022-08-17T06:04:31.740Z,53.41
2022-08-17T06:05:36.142Z,53.49
2022-08-17T06:06:40.521Z,53.52
2022-08-17T06:07:45.773Z,53.52
2022-08-17T06:08:53.450Z,53.51
2022-08-17T06:09:57.856Z,53.51
2022-08-17T06:11:03.348Z,53.56
2022-08-17T06:12:18.937Z,53.54
2022-08-17T06:13:24.183Z,53.54
2022-08-17T06:14:28.547Z,53.45
2022-08-17T06:15:32.909Z,53.43
2022-08-17T06:16:38.431Z,53.42
2022-08-17T06:17:42.947Z,53.48
2022-08-17T06:18:47.311Z,53.32
2022-08-17T06:19:51.685Z,53.41
2022-08-17T06:20:56.027Z,53.42
2022-08-17T06:22:00.437Z,53.49
2022-08-17T06:23:04.803Z,53.48
2022-08-17T06:24:09.176Z,53.43
2022-08-17T06:25:13.634Z,53.49
2022-08-17T06:26:17.962Z,53.51
2022-08-17T06:27:22.342Z,53.47
2022-08-17T06:28:26.713Z,53.47
2022-08-17T06:29:31.077Z,53.44
2022-08-17T06:31:02.651Z,53.44
2022-08-17T06:32:06.978Z,53.47
2022-08-17T06:33:11.406Z,53.49
2022-08-17T06:34:15.759Z,53.41
2022-08-17T06:35:20.143Z,53.39
2022-08-17T06:36:26.971Z,53.42
2022-08-17T06:37:31.379Z,53.45
2022-08-17T06:38:40.434Z,53.39
2022-08-17T06:39:44.990Z,53.46
2022-08-17T06:40:49.409Z,53.54
2022-08-17T06:41:53.777Z,53.46
2022-08-17T06:43:09.240Z,53.66
2022-08-17T06:44:52.213Z,53.56
2022-08-17T06:45:56.568Z,53.57
2022-08-17T06:47:00.920Z,53.59
2022-08-17T06:48:05.301Z,53.54
2022-08-17T06:49:09.665Z,53.61
2022-08-17T06:50:14.013Z,53.64
2022-08-17T06:51:18.378Z,53.67
2022-08-17T06:52:49.328Z,53.59
2022-08-17T06:53:54.297Z,53.73
2022-08-17T06:54:58.686Z,53.86
2022-08-17T06:56:03.051Z,53.88
2022-08-17T06:57:07.416Z,53.89
2022-08-17T06:58:18.655Z,53.98
2022-08-17T06:59:23.010Z,53.99
2022-08-17T07:00:27.568Z,54.03
2022-08-17T07:01:32.303Z,54
2022-08-17T07:02:54.637Z,54.18
2022-08-17T07:03:58.972Z,54.12
2022-08-17T07:05:09.514Z,54.05
2022-08-17T07:06:13.885Z,54.12
2022-08-17T07:07:18.264Z,54.11
2022-08-17T07:08:30.527Z,54.13
2022-08-17T07:09:36.367Z,54.18
2022-08-17T07:10:40.764Z,54.37
2022-08-17T07:11:45.095Z,54.28
2022-08-17T07:12:49.992Z,54.27
2022-08-17T07:13:54.394Z,54.17
2022-08-17T07:14:58.750Z,54.14
2022-08-17T07:16:03.118Z,54.27
2022-08-17T07:17:07.454Z,54.29
2022-08-17T07:18:11.856Z,54.1
2022-08-17T07:19:16.226Z,54.16
2022-08-17T07:20:20.609Z,54.18
2022-08-17T07:21:28.703Z,54.21
2022-08-17T07:23:01.615Z,54
2022-08-17T07:24:05.973Z,54.66
2022-08-17T07:25:10.365Z,54.51
2022-08-17T07:26:20.324Z,54.24
2022-08-17T07:27:24.701Z,54.16
2022-08-17T07:28:29.116Z,53.95
2022-08-17T07:29:33.488Z,53.86
2022-08-17T07:30:48.928Z,53.95
2022-08-17T07:31:53.286Z,54.26
2022-08-17T07:32:59.984Z,54.05
2022-08-17T07:34:04.369Z,54.07
2022-08-17T07:35:12.823Z,54.09
2022-08-17T07:36:19.692Z,54.21
2022-08-17T07:37:24.055Z,54.16
2022-08-17T07:38:29.203Z,54.06
2022-08-17T07:39:33.801Z,53.77
2022-08-17T07:40:38.417Z,53.69
2022-08-17T07:42:00.925Z,54.1
2022-08-17T07:43:06.969Z,54.2
2022-08-17T07:44:11.343Z,54.21
2022-08-17T07:45:15.783Z,54.17
2022-08-17T07:46:20.128Z,54.34
2022-08-17T07:47:24.501Z,54
2022-08-17T07:48:28.904Z,53.89
2022-08-17T07:49:33.738Z,53.81
2022-08-17T07:50:39.185Z,53.67
2022-08-17T07:51:43.539Z,53.93
2022-08-17T07:52:53.810Z,53.57
2022-08-17T07:54:16.052Z,53.54
2022-08-17T07:55:20.476Z,53.58
2022-08-17T07:56:35.594Z,53.37
2022-08-17T07:57:39.968Z,53.66
2022-08-17T07:58:44.307Z,53.45
2022-08-17T07:59:49.836Z,53.47
2022-08-17T08:00:57.123Z,53.55
2022-08-17T08:02:03.725Z,53.39
2022-08-17T08:03:12.029Z,53.73
2022-08-17T08:05:08.711Z,53.49
2022-08-17T08:06:14.582Z,53.53
2022-08-17T08:07:18.919Z,53.39
2022-08-17T08:08:23.267Z,53.31
2022-08-17T08:09:30.472Z,53.21
2022-08-17T08:10:34.847Z,53.22
2022-08-17T08:11:45.513Z,53.22
2022-08-17T08:12:54.685Z,53.18
2022-08-17T08:13:59.058Z,53.14
2022-08-17T08:15:03.416Z,53.04
2022-08-17T08:16:07.745Z,53.18
2022-08-17T08:17:12.091Z,52.91
2022-08-17T08:18:57.904Z,53.22
2022-08-17T08:20:53.977Z,53.23
2022-08-17T08:21:58.450Z,53.24
2022-08-17T08:23:02.810Z,53.23
2022-08-17T08:24:07.163Z,53.01
2022-08-17T08:25:11.501Z,52.95
2022-08-17T08:26:20.455Z,52.95
2022-08-17T08:27:24.818Z,53.19
2022-08-17T08:28:29.152Z,52.97
2022-08-17T08:29:33.528Z,52.93
2022-08-17T08:30:37.882Z,52.92
2022-08-17T08:31:45.055Z,52.94
2022-08-17T08:32:51.378Z,52.97
2022-08-17T08:33:55.714Z,52.7
2022-08-17T08:35:05.102Z,52.78
2022-08-17T08:36:09.477Z,52.81
2022-08-17T08:37:36.820Z,52.93
2022-08-17T08:38:43.437Z,52.54
2022-08-17T08:39:48.016Z,52.7
2022-08-17T08:40:52.465Z,52.59
2022-08-17T08:41:56.805Z,52.67
2022-08-17T08:43:01.180Z,52.54
2022-08-17T08:44:05.542Z,52.5
2022-08-17T08:45:09.898Z,52.48
2022-08-17T08:46:14.253Z,52.44
2022-08-17T08:47:24.028Z,52.41
2022-08-17T08:49:01.776Z,52.36
2022-08-17T08:50:40.138Z,52.31
2022-08-17T08:51:45.069Z,52.22
2022-08-17T08:52:49.433Z,52.13
2022-08-17T08:53:53.827Z,52.14
2022-08-17T08:54:58.179Z,51.92
2022-08-17T08:56:02.521Z,52.06
2022-08-17T08:57:34.808Z,52.07
2022-08-17T08:58:44.272Z,52.04
2022-08-17T09:00:00.049Z,52.1
2022-08-17T09:01:04.614Z,51.97
2022-08-17T09:02:08.986Z,51.99
2022-08-17T09:03:13.392Z,51.94
2022-08-17T09:04:27.036Z,51.92
2022-08-17T09:05:31.446Z,51.9
2022-08-17T09:06:41.547Z,51.78
2022-08-17T09:07:46.112Z,51.71
2022-08-17T09:08:50.531Z,51.64
2022-08-17T09:10:00.547Z,51.65
2022-08-17T09:11:04.902Z,51.54
2022-08-17T09:12:09.297Z,51.61
2022-08-17T09:13:13.694Z,51.3
2022-08-17T09:14:30.317Z,51.45
2022-08-17T09:15:40.943Z,51.3
2022-08-17T09:16:45.316Z,51
2022-08-17T09:17:55.716Z,50.79
2022-08-17T09:19:08.406Z,50.58
2022-08-17T09:20:29.009Z,50.44
2022-08-17T09:21:37.501Z,50.16
2022-08-17T09:22:50.100Z,50.03
2022-08-17T09:23:54.512Z,49.76
2022-08-17T09:24:58.900Z,49.52
2022-08-17T09:26:03.270Z,49.5
2022-08-17T09:27:07.621Z,49.76
2022-08-17T09:28:12.083Z,49.37
2022-08-17T09:29:16.460Z,49.38
2022-08-17T09:30:20.823Z,49.34
2022-08-17T09:31:34.529Z,49.12
2022-08-17T09:32:50.751Z,49.4
2022-08-17T09:33:55.136Z,49.49
2022-08-17T09:34:59.559Z,49.3
2022-08-17T09:36:03.942Z,49.23
2022-08-17T09:37:08.416Z,49.51
2022-08-17T09:38:12.786Z,49.33
2022-08-17T09:39:17.176Z,49.27
2022-08-17T09:40:21.783Z,49.08
2022-08-17T09:41:26.225Z,49.16
2022-08-17T09:42:30.608Z,49.06
2022-08-17T09:43:34.972Z,49.03
2022-08-17T09:44:39.362Z,48.97
2022-08-17T09:45:43.727Z,48.71
2022-08-17T09:46:48.130Z,49
2022-08-17T09:47:53.238Z,49.02
2022-08-17T09:48:57.660Z,49.04
2022-08-17T09:50:02.023Z,48.91
2022-08-17T09:51:08.717Z,48.81
2022-08-17T09:52:13.107Z,48.82
2022-08-17T09:53:17.485Z,48.62
2022-08-17T09:54:41.673Z,48.45
2022-08-17T09:55:46.032Z,48.62
2022-08-17T09:57:31.260Z,48.35
2022-08-17T09:58:36.020Z,48.24
2022-08-17T09:59:45.497Z,48.28
2022-08-17T10:00:50.588Z,47.66
2022-08-17T10:01:54.967Z,47.59
2022-08-17T10:02:59.322Z,47.89
2022-08-17T10:04:03.680Z,47.09
2022-08-17T10:05:08.082Z,46.93
2022-08-17T10:06:12.425Z,46.84
2022-08-17T10:07:16.784Z,47.29
2022-08-17T10:08:24.483Z,46.76
2022-08-17T10:09:28.849Z,46.53
2022-08-17T10:10:34.522Z,46.47
2022-08-17T10:11:51.271Z,46.79
2022-08-17T10:12:56.231Z,46.55
2022-08-17T10:14:01.661Z,46.42
2022-08-17T10:15:43.485Z,46.15
2022-08-17T10:16:47.840Z,45.95
2022-08-17T10:17:52.774Z,45.95
2022-08-17T10:18:57.138Z,46.05
2022-08-17T10:20:01.506Z,46.11
2022-08-17T10:21:05.866Z,45.95
2022-08-17T10:22:39.356Z,46.28
2022-08-17T10:23:44.373Z,46.19
2022-08-17T10:25:48.986Z,46.42
2022-08-17T10:26:59.456Z,46.14
2022-08-17T10:28:03.901Z,45.85
2022-08-17T10:29:08.289Z,45.79
2022-08-17T10:30:15.331Z,46.17
2022-08-17T10:31:37.404Z,46.59
2022-08-17T10:32:41.797Z,46.55
2022-08-17T10:33:46.174Z,46.73
2022-08-17T10:34:50.525Z,46.57
2022-08-17T10:35:59.243Z,46.85
2022-08-17T10:37:03.647Z,47
2022-08-17T10:38:08.080Z,46.92
2022-08-17T10:39:12.449Z,47.08
2022-08-17T10:40:17.254Z,46.86
2022-08-17T10:41:21.653Z,47.09
2022-08-17T10:42:34.795Z,47.29
2022-08-17T10:43:39.179Z,47.21
2022-08-17T10:44:43.757Z,47.37
2022-08-17T10:45:49.058Z,47.33
2022-08-17T10:47:13.657Z,47.23
2022-08-17T10:48:18.007Z,47.41
2022-08-17T10:49:22.387Z,47.28
2022-08-17T10:50:26.733Z,47.41
2022-08-17T10:51:31.117Z,47.65
2022-08-17T10:52:35.473Z,46.69
2022-08-17T10:53:42.439Z,47
2022-08-17T10:54:46.818Z,46.72
2022-08-17T10:55:51.217Z,47.32
2022-08-17T10:56:55.567Z,47.28
2022-08-17T10:57:59.936Z,46.86
2022-08-17T10:59:04.293Z,46.45
2022-08-17T11:00:08.655Z,46.66
2022-08-17T11:01:13.223Z,46.13
2022-08-17T11:02:17.683Z,46.35
2022-08-17T11:03:22.027Z,46.07
2022-08-17T11:04:27.259Z,46.18
2022-08-17T11:05:31.600Z,45.9
2022-08-17T11:06:35.976Z,45.75
2022-08-17T11:07:40.374Z,45.68
2022-08-17T11:08:45.270Z,45.84
2022-08-17T11:09:49.638Z,45.77
2022-08-17T11:10:54.505Z,45.75
2022-08-17T11:11:59.021Z,45.6
2022-08-17T11:13:06.727Z,45.58
2022-08-17T11:14:11.273Z,45.87
2022-08-17T11:15:15.668Z,45.94
2022-08-17T11:16:20.284Z,45.89
2022-08-17T11:17:25.252Z,45.94
2022-08-17T11:18:29.627Z,45.88
2022-08-17T11:19:33.983Z,46.16
2022-08-17T11:20:38.346Z,46.26
2022-08-17T11:21:42.830Z,45.88
2022-08-17T11:22:47.389Z,45.64
2022-08-17T11:23:51.780Z,45.57
2022-08-17T11:24:56.149Z,45.21
2022-08-17T11:26:00.499Z,45.85
2022-08-17T11:27:04.877Z,45.88
2022-08-17T11:28:09.254Z,46.45
2022-08-17T11:29:17.423Z,46.82
2022-08-17T11:30:28.615Z,47.08
2022-08-17T11:31:42.366Z,47.04
2022-08-17T11:32:56.224Z,47.43
2022-08-17T11:34:00.984Z,47.35
2022-08-17T11:35:05.388Z,47.33
2022-08-17T11:36:09.784Z,47.12
2022-08-17T11:37:14.162Z,47.56
2022-08-17T11:38:18.883Z,47.61
2022-08-17T11:39:23.270Z,47.59
2022-08-17T11:40:28.602Z,47.61
2022-08-17T11:41:33.194Z,47.35
2022-08-17T11:42:37.774Z,47.48
2022-08-17T11:43:44.917Z,47.57
2022-08-17T11:44:49.264Z,47.71
2022-08-17T11:45:53.630Z,47.78
2022-08-17T11:46:57.972Z,47.64
2022-08-17T11:48:30.663Z,47.99
2022-08-17T11:49:35.171Z,47.77
2022-08-17T11:50:39.546Z,47.91
2022-08-17T11:51:43.904Z,47.79
2022-08-17T11:52:49.076Z,48.01
2022-08-17T11:54:34.509Z,48.08
2022-08-17T11:55:46.047Z,47.97
2022-08-17T11:56:50.385Z,48.16
2022-08-17T11:57:54.737Z,48.18
2022-08-17T11:58:59.093Z,48.03
2022-08-17T12:00:03.472Z,48.14
2022-08-17T12:01:08.206Z,48.12
2022-08-17T12:02:12.666Z,48.31
2022-08-17T12:03:17.213Z,48.21
2022-08-17T12:04:21.817Z,48.34
2022-08-17T12:05:26.179Z,48.25
2022-08-17T12:06:32.800Z,48.28
2022-08-17T12:07:37.201Z,48.44
2022-08-17T12:08:44.539Z,48.87
2022-08-17T12:09:48.911Z,49.23
2022-08-17T12:10:53.248Z,48.96
2022-08-17T12:12:16.012Z,48.98
2022-08-17T12:13:20.424Z,49.02
2022-08-17T12:15:11.978Z,49.06
2022-08-17T12:16:16.579Z,48.9
2022-08-17T12:17:44.105Z,48.8
2022-08-17T12:18:48.473Z,48.82
2022-08-17T12:19:55.914Z,48.83
2022-08-17T12:21:00.298Z,48.76
2022-08-17T12:22:04.623Z,48.52
2022-08-17T12:23:08.992Z,48.24
2022-08-17T12:24:13.379Z,48.22
2022-08-17T12:25:17.732Z,48.56
2022-08-17T12:26:22.104Z,48.05
2022-08-17T12:28:09.422Z,47.5
2022-08-17T12:29:40.277Z,47.53
2022-08-17T12:30:44.670Z,47.64
2022-08-17T12:31:48.999Z,47.51
2022-08-17T12:32:53.398Z,47.36
2022-08-17T12:33:57.747Z,47.27
2022-08-17T12:35:02.120Z,47.25
2022-08-17T12:36:06.505Z,47.16
2022-08-17T12:37:10.834Z,47.14
2022-08-17T12:38:35.119Z,47.13
2022-08-17T12:39:40.641Z,47.1
2022-08-17T12:40:45.021Z,47.37
2022-08-17T12:41:51.311Z,46.86
2022-08-17T12:42:55.672Z,47.4
2022-08-17T12:44:00.064Z,47.07
2022-08-17T12:45:04.449Z,46.84
2022-08-17T12:46:16.981Z,46.98
2022-08-17T12:47:25.023Z,46.86
2022-08-17T12:48:33.891Z,47.27
2022-08-17T12:49:38.262Z,47.28
2022-08-17T12:50:42.622Z,47.02
2022-08-17T12:51:46.982Z,47.02
2022-08-17T12:52:59.872Z,47.29
2022-08-17T12:54:06.126Z,47.16
2022-08-17T12:55:10.558Z,47.11
2022-08-17T12:56:14.923Z,47.23
2022-08-17T12:57:19.272Z,47.23
2022-08-17T12:58:23.645Z,47.25
2022-08-17T12:59:33.948Z,47.37
2022-08-17T13:00:38.294Z,47.28
2022-08-17T13:01:42.846Z,47.21
2022-08-17T13:02:47.485Z,47.21
2022-08-17T13:03:51.915Z,47.15
2022-08-17T13:04:56.264Z,47.07
2022-08-17T13:06:00.630Z,47.05
2022-08-17T13:07:04.959Z,47.07
2022-08-17T13:08:09.332Z,46.7
2022-08-17T13:09:13.752Z,47.24
2022-08-17T13:10:18.123Z,46.9
2022-08-17T13:11:22.535Z,46.97
2022-08-17T13:12:26.924Z,47.11
2022-08-17T13:13:31.271Z,46.97
2022-08-17T13:14:36.390Z,46.7
2022-08-17T13:15:46.540Z,46.53
2022-08-17T13:16:52.709Z,46.86
2022-08-17T13:17:57.081Z,46.76
2022-08-17T13:19:01.465Z,46.8
2022-08-17T13:20:05.925Z,46.72
2022-08-17T13:21:10.282Z,46.72
2022-08-17T13:22:14.843Z,46.45
2022-08-17T13:23:20.729Z,46.89
2022-08-17T13:24:25.100Z,46.11
2022-08-17T13:25:29.477Z,46.03
2022-08-17T13:26:33.816Z,46.03
2022-08-17T13:27:38.216Z,46.44
2022-08-17T13:28:42.547Z,46.06
2022-08-17T13:29:54.135Z,45.91
2022-08-17T13:30:58.490Z,46.24
2022-08-17T13:32:13.998Z,46.26
2022-08-17T13:33:25.403Z,45.98
2022-08-17T13:35:32.929Z,45.99
2022-08-17T13:36:46.259Z,46.32
2022-08-17T13:37:53.630Z,46.3
2022-08-17T13:38:58.028Z,46.25
2022-08-17T13:40:02.677Z,46.3
2022-08-17T13:41:07.093Z,46.25
2022-08-17T13:42:22.349Z,46.52
2022-08-17T13:43:26.844Z,45.84
2022-08-17T13:44:31.181Z,46.12
2022-08-17T13:45:40.236Z,46.2
2022-08-17T13:46:58.445Z,46.13
2022-08-17T13:48:03.406Z,45.99
2022-08-17T13:49:07.752Z,45.75
2022-08-17T13:50:12.107Z,45.54
2022-08-17T13:51:16.462Z,45.42
2022-08-17T13:52:29.947Z,45.41
2022-08-17T13:53:35.425Z,45.37
2022-08-17T13:54:41.285Z,45.74
2022-08-17T13:55:45.634Z,45.25
2022-08-17T13:56:50.064Z,45.5
2022-08-17T13:58:09.130Z,45.32
2022-08-17T13:59:13.820Z,45.62
2022-08-17T14:00:18.169Z,45.54
2022-08-17T14:01:22.673Z,45.25
2022-08-17T14:02:30.667Z,45.51
2022-08-17T14:03:34.998Z,45.39
2022-08-17T14:04:39.385Z,45.23
2022-08-17T14:05:43.795Z,45.27
2022-08-17T14:06:55.444Z,45.45
2022-08-17T14:07:59.781Z,45.31
2022-08-17T14:09:04.150Z,45.48
2022-08-17T14:10:08.533Z,45.25
2022-08-17T14:11:12.881Z,45.68
2022-08-17T14:12:17.253Z,45.31
2022-08-17T14:13:21.612Z,45.26
2022-08-17T14:14:25.985Z,45.26
2022-08-17T14:15:58.267Z,45.29
2022-08-17T14:17:02.639Z,45.25
2022-08-17T14:18:07.016Z,45.36
2022-08-17T14:19:11.374Z,45.04
2022-08-17T14:20:15.764Z,45.83
2022-08-17T14:21:20.128Z,45.09
2022-08-17T14:22:24.560Z,45.07
2022-08-17T14:23:28.891Z,45.32
2022-08-17T14:24:33.229Z,45.17
2022-08-17T14:25:37.598Z,45.23
2022-08-17T14:26:41.976Z,45.11
2022-08-17T14:27:55.876Z,45.04
2022-08-17T14:29:02.516Z,45.07
2022-08-17T14:30:06.870Z,45.23
2022-08-17T14:31:11.228Z,45.21
2022-08-17T14:32:15.569Z,45.17